Time;durP1;ratioP1;P1;durP2;ratioP2;P2;SDS_P1;SDS_P2;PMS_P1;PMS_P2;Temp;Humidity;BMP_temperature;BMP_pressure;BME280_temperature;BME280_humidity;BME280_pressure;Samples;Min_cycle;Max_cycle;Signal;HPM_P1;HPM_P2
2022/01/04 14:45:35;;;;;;;43.20;23.80;;;;;;;2.99;100.00;98593.78;1854532;74;22935;-60
2022/01/04 14:48:02;;;;;;;39.53;24.40;;;;;;;2.98;100.00;98597.30;1834045;75;21549;-61
2022/01/04 14:50:29;;;;;;;33.58;21.60;;;;;;;3.10;100.00;98599.52;1835588;75;21540;-60
2022/01/04 14:52:56;;;;;;;21.70;15.90;;;;;;;3.19;100.00;98601.02;1840534;75;21439;-60
2022/01/04 14:55:23;;;;;;;;;;;;;;;3.26;100.00;98602.99;1843314;75;21585;-60
2022/01/04 14:57:50;;;;;;;22.02;12.18;;;;;;;3.36;100.00;98607.46;1834880;77;20518;-61
2022/01/04 15:00:19;;;;;;;16.12;10.55;;;;;;;3.43;100.00;98609.83;1829569;75;21528;-59
2022/01/04 15:02:47;;;;;;;18.23;10.50;;;;;;;3.50;100.00;98606.58;1829916;75;21399;-59
2022/01/04 15:05:15;;;;;;;22.32;10.98;;;;;;;3.58;100.00;98600.71;1825629;75;21592;-60
2022/01/04 15:07:42;;;;;;;14.78;8.98;;;;;;;3.68;100.00;98596.07;1824970;75;21520;-59
2022/01/04 15:10:10;;;;;;;15.60;9.08;;;;;;;3.78;100.00;98595.32;1834954;76;21564;-58
2022/01/04 15:12:37;;;;;;;13.35;8.63;;;;;;;3.84;100.00;98595.99;1838759;75;21545;-60
2022/01/04 15:15:08;;;;;;;12.78;8.80;;;;;;;3.89;100.00;98593.23;1823528;75;21446;-60
2022/01/04 15:17:35;;;;;;;13.25;8.73;;;;;;;3.94;100.00;98590.03;1835476;75;21529;-60
2022/01/04 15:20:03;;;;;;;20.30;13.30;;;;;;;4.01;100.00;98601.08;1839417;75;21328;-59
2022/01/04 15:22:36;;;;;;;15.03;9.23;;;;;;;4.03;100.00;98594.06;1836595;75;21865;-60
2022/01/04 15:25:04;;;;;;;13.60;8.50;;;;;;;4.02;100.00;98595.83;1833088;75;21388;-60
2022/01/04 15:27:32;;;;;;;11.20;8.08;;;;;;;4.09;100.00;98589.53;1837308;75;21776;-59
2022/01/04 15:29:58;;;;;;;12.55;7.10;;;;;;;4.14;100.00;98588.52;1827759;75;21541;-58
2022/01/04 15:32:25;;;;;;;11.95;8.45;;;;;;;4.16;100.00;98588.86;1833774;75;21544;-61
2022/01/04 15:34:52;;;;;;;12.13;8.33;;;;;;;4.19;100.00;98586.16;1838990;75;21564;-58
2022/01/04 15:37:19;;;;;;;13.20;8.08;;;;;;;4.14;100.00;98583.31;1837058;75;22095;-60
2022/01/04 15:39:48;;;;;;;11.95;8.25;;;;;;;4.19;100.00;98577.52;1830166;75;21759;-61
2022/01/04 15:42:14;;;;;;;12.47;8.23;;;;;;;4.28;100.00;98571.54;1833312;75;21522;-60
2022/01/04 15:44:43;;;;;;;12.43;8.80;;;;;;;4.33;100.00;98575.27;1823112;75;28714;-61
2022/01/04 15:47:11;;;;;;;14.55;9.05;;;;;;;4.34;100.00;98573.55;1817402;76;28564;-60
2022/01/04 15:49:42;;;;;;;20.80;9.40;;;;;;;4.38;100.00;98566.02;1820106;77;21026;-59
2022/01/04 15:52:10;;;;;;;16.95;10.45;;;;;;;4.45;100.00;98567.52;1816046;77;22087;-59
2022/01/04 15:54:37;;;;;;;18.75;11.08;;;;;;;4.49;100.00;98564.73;1824773;77;21526;-60
2022/01/04 15:57:04;;;;;;;15.80;10.13;;;;;;;4.47;100.00;98570.45;1820536;77;21547;-59
2022/01/04 15:59:32;;;;;;;17.00;10.90;;;;;;;4.48;100.00;98568.26;1832685;77;21445;-59
2022/01/04 16:01:59;;;;;;;16.75;10.82;;;;;;;4.44;100.00;98571.00;1818045;76;21535;-59
2022/01/04 16:04:28;;;;;;;17.92;10.58;;;;;;;4.36;100.00;98569.13;1817211;76;22131;-58
2022/01/04 16:06:55;;;;;;;14.43;10.50;;;;;;;4.35;100.00;98572.62;1830882;77;21520;-59
2022/01/04 16:09:21;;;;;;;13.18;9.83;;;;;;;4.37;100.00;98572.98;1827128;77;21542;-58
2022/01/04 16:11:48;;;;;;;11.55;9.28;;;;;;;4.27;100.00;98566.38;1823171;76;21533;-59
2022/01/04 16:14:15;;;;;;;12.98;8.68;;;;;;;4.17;100.00;98556.75;1816669;76;21042;-58
2022/01/04 16:16:58;;;;;;;17.07;8.67;;;;;;;4.12;100.00;98560.41;1823925;77;21681;-59
2022/01/04 16:21:59;;;;;;;13.80;9.03;;;;;;;4.10;100.00;98565.66;1822111;77;21500;-61
2022/01/04 16:24:25;;;;;;;14.78;9.00;;;;;;;4.02;100.00;98554.20;1813698;77;21388;-59
2022/01/04 16:26:55;;;;;;;14.00;8.38;;;;;;;4.03;100.00;98552.02;1820501;77;21471;-59
2022/01/04 16:29:25;;;;;;;19.02;9.75;;;;;;;4.09;100.00;98549.66;1828853;76;21764;-59
2022/01/04 16:31:53;;;;;;;14.68;9.18;;;;;;;4.08;100.00;98547.49;1828573;76;21552;-60
2022/01/04 16:34:21;;;;;;;16.32;9.30;;;;;;;4.05;100.00;98538.94;1825501;77;21512;-59
2022/01/04 16:36:49;;;;;;;15.43;9.68;;;;;;;4.02;100.00;98537.30;1828075;76;22600;-59
2022/01/04 16:39:17;;;;;;;17.45;10.98;;;;;;;4.04;100.00;98529.45;1834019;76;21538;-59
2022/01/04 16:41:45;;;;;;;15.53;10.10;;;;;;;4.06;100.00;98525.05;1820760;76;21860;-59
2022/01/04 16:44:12;;;;;;;16.37;10.23;;;;;;;4.03;100.00;98527.31;1827937;75;21609;-61
2022/01/04 16:46:41;;;;;;;15.23;10.05;;;;;;;4.01;100.00;98529.12;1834568;75;21560;-59
2022/01/04 16:49:11;;;;;;;16.50;10.28;;;;;;;4.03;100.00;98530.34;1837345;75;21008;-59
2022/01/04 16:51:38;;;;;;;16.10;11.08;;;;;;;4.02;100.00;98518.25;1839405;75;21548;-60
2022/01/04 16:54:06;;;;;;;13.93;9.83;;;;;;;3.94;100.00;98513.31;1841646;75;21833;-59
2022/01/04 16:56:37;;;;;;;15.70;9.90;;;;;;;3.86;100.00;98507.50;1831796;75;21433;-60
2022/01/04 16:59:05;;;;;;;14.33;10.40;;;;;;;3.90;100.00;98502.16;1833485;75;21624;-59
2022/01/04 17:01:34;;;;;;;15.95;10.58;;;;;;;3.91;100.00;98501.70;1840824;75;21525;-58
2022/01/04 17:04:01;;;;;;;14.13;10.13;;;;;;;3.86;100.00;98498.40;1839854;75;21020;-59
2022/01/04 17:06:29;;;;;;;14.95;9.23;;;;;;;3.83;100.00;98497.23;1835924;77;21748;-59
2022/01/04 17:08:58;;;;;;;17.35;10.63;;;;;;;3.92;100.00;98494.31;1829935;75;21394;-57
2022/01/04 17:11:26;;;;;;;14.40;9.20;;;;;;;3.95;100.00;98490.75;1835657;75;21458;-59
2022/01/04 17:16:39;;;;;;;14.47;9.05;;;;;;;3.84;100.00;98486.77;1833380;75;21072;-58
2022/01/04 17:19:05;;;;;;;16.42;9.60;;;;;;;3.84;100.00;98485.48;1837410;75;22089;-57
2022/01/04 17:21:33;;;;;;;15.17;10.10;;;;;;;3.85;100.00;98484.56;1821431;75;21422;-57
2022/01/04 17:24:02;;;;;;;15.05;9.50;;;;;;;3.82;100.00;98477.31;1786260;75;21533;-59
2022/01/04 17:26:30;;;;;;;13.62;8.95;;;;;;;3.75;100.00;98475.38;1833782;75;21470;-60
2022/01/04 17:28:57;;;;;;;15.48;8.68;;;;;;;3.77;100.00;98470.98;1824658;75;21556;-62
2022/01/04 17:31:23;;;;;;;14.43;10.08;;;;;;;3.81;100.00;98465.23;1835998;75;21898;-61
2022/01/04 17:33:50;;;;;;;17.10;9.48;;;;;;;3.77;100.00;98455.38;1841934;75;21631;-60
2022/01/04 17:36:17;;;;;;;14.73;9.45;;;;;;;3.69;100.00;98459.97;1838477;75;20965;-60
2022/01/04 17:38:43;;;;;;;16.35;10.05;;;;;;;3.67;100.00;98458.75;1825559;75;21434;-61
2022/01/04 17:41:10;;;;;;;14.28;9.20;;;;;;;3.73;100.00;98451.19;1835557;75;21620;-60
2022/01/04 17:43:37;;;;;;;13.70;10.08;;;;;;;3.73;100.00;98456.39;1833368;75;21917;-61
2022/01/04 17:46:03;;;;;;;15.65;10.05;;;;;;;3.68;100.00;98456.53;1816299;75;21374;-60
2022/01/04 17:48:31;;;;;;;15.13;10.20;;;;;;;3.63;100.00;98457.58;1817665;76;21529;-60
2022/01/04 17:50:58;;;;;;;14.78;9.05;;;;;;;3.69;100.00;98449.57;1813611;76;21493;-59
2022/01/04 17:53:25;;;;;;;12.10;9.28;;;;;;;3.70;100.00;98452.58;1810970;76;21445;-59
2022/01/04 17:55:53;;;;;;;12.82;9.05;;;;;;;3.68;100.00;98438.79;1807647;76;21812;-61
2022/01/04 17:58:21;;;;;;;15.78;9.30;;;;;;;3.64;100.00;98438.50;1806952;76;21409;-57
2022/01/04 18:00:48;;;;;;;;;;;;;;;3.60;100.00;98435.16;1805620;76;21537;-59
2022/01/04 18:03:15;;;;;;;11.93;8.83;;;;;;;3.61;100.00;98438.59;1801608;76;27072;-59
2022/01/04 18:05:43;;;;;;;20.45;10.05;;;;;;;3.64;100.00;98438.50;1808042;76;21556;-59
2022/01/04 18:08:09;;;;;;;13.88;9.60;;;;;;;3.66;100.00;98432.80;1813895;76;21551;-60
2022/01/04 18:10:37;;;;;;;12.55;9.03;;;;;;;3.63;100.00;98429.83;1814208;76;21031;-63
2022/01/04 18:13:04;;;;;;;14.68;8.58;;;;;;;3.59;100.00;98428.70;1801240;76;21666;-59
2022/01/04 18:15:31;;;;;;;10.50;7.37;;;;;;;3.62;100.00;98419.05;1813068;76;21481;-60
2022/01/04 18:17:58;;;;;;;14.65;8.83;;;;;;;3.70;100.00;98414.89;1806952;76;21012;-58
2022/01/04 18:20:25;;;;;;;15.38;8.90;;;;;;;3.74;100.00;98415.63;1802751;76;21809;-60
2022/01/04 18:22:52;;;;;;;13.25;8.40;;;;;;;3.71;100.00;98413.97;1804515;76;20969;-59
2022/01/04 18:25:19;;;;;;;12.37;8.15;;;;;;;3.67;100.00;98405.88;1804412;76;21425;-59
2022/01/04 18:27:46;;;;;;;12.00;8.28;;;;;;;3.68;100.00;98406.30;1798638;76;21048;-57
2022/01/04 18:30:13;;;;;;;11.73;7.95;;;;;;;3.77;100.00;98403.38;1803832;76;21674;-58
2022/01/04 18:32:40;;;;;;;12.60;7.47;;;;;;;3.79;100.00;98400.73;1812356;76;21839;-60
2022/01/04 18:35:08;;;;;;;13.57;6.90;;;;;;;3.76;100.00;98395.16;1748141;80;21153;-59
2022/01/04 18:37:35;;;;;;;14.50;7.20;;;;;;;3.72;100.00;98380.58;1792210;77;21473;-58
2022/01/04 18:40:03;;;;;;;12.73;7.15;;;;;;;3.76;100.00;98375.67;1750726;80;21421;-58
2022/01/04 18:42:30;;;;;;;10.60;6.53;;;;;;;3.81;100.00;98375.06;1789020;77;21521;-60
2022/01/04 18:44:57;;;;;;;10.45;6.72;;;;;;;3.81;100.00;98367.72;1771372;78;21584;-59
2022/01/04 18:47:23;;;;;;;12.07;7.08;;;;;;;3.78;100.00;98362.62;1793976;78;21466;-60
2022/01/04 18:49:50;;;;;;;7.97;6.40;;;;;;;3.84;100.00;98359.80;1792827;78;21549;-59
2022/01/04 18:52:17;;;;;;;12.07;6.90;;;;;;;3.89;100.00;98345.72;1793798;78;21065;-61
2022/01/04 18:54:43;;;;;;;10.03;6.78;;;;;;;3.93;100.00;98345.63;1760249;78;21032;-61
2022/01/04 18:57:10;;;;;;;13.50;7.22;;;;;;;3.93;100.00;98345.63;1769719;78;22103;-59
2022/01/04 18:59:37;;;;;;;10.87;6.40;;;;;;;3.89;100.00;98340.98;1758040;78;21737;-58
2022/01/04 19:02:05;;;;;;;8.95;6.20;;;;;;;3.93;100.00;98333.92;1766762;78;21445;-59
2022/01/04 19:04:33;;;;;;;10.53;6.10;;;;;;;3.98;100.00;98333.30;1760382;78;21437;-58
2022/01/04 19:07:01;;;;;;;13.80;6.05;;;;;;;3.96;100.00;98333.81;1764429;78;21001;-60
2022/01/04 19:09:27;;;;;;;9.80;5.92;;;;;;;3.95;100.00;98326.91;1763578;78;22016;-57
2022/01/04 19:11:56;;;;;;;9.65;6.20;;;;;;;4.01;100.00;98318.87;1770114;78;21506;-57
2022/01/04 19:14:22;;;;;;;9.80;6.47;;;;;;;4.09;100.00;98316.84;1761547;78;21467;-58
2022/01/04 19:16:49;;;;;;;14.15;7.25;;;;;;;4.12;100.00;98318.02;1769045;78;21573;-57
2022/01/04 19:19:16;;;;;;;8.38;6.42;;;;;;;4.11;100.00;98320.23;1765403;78;21537;-57
2022/01/04 19:21:43;;;;;;;11.53;7.15;;;;;;;4.08;100.00;98316.44;1760247;78;21749;-59
2022/01/04 19:24:10;;;;;;;13.13;6.85;;;;;;;4.14;100.00;98305.79;1773081;78;28530;-58
2022/01/04 19:26:37;;;;;;;15.40;10.15;;;;;;;4.22;100.00;98307.67;1759189;78;20902;-56
2022/01/04 19:29:04;;;;;;;16.63;10.50;;;;;;;4.25;100.00;98304.09;1769841;78;21587;-57
2022/01/04 19:31:32;;;;;;;14.00;8.23;;;;;;;4.21;98.80;98294.25;1768596;78;21498;-58
2022/01/04 19:36:33;;;;;;;13.10;8.00;;;;;;;4.18;99.21;98294.81;1763632;78;21568;-60
2022/01/04 19:39:03;;;;;;;14.03;8.30;;;;;;;4.27;97.50;98293.16;1764105;78;21572;-60
2022/01/04 19:41:33;;;;;;;12.05;7.17;;;;;;;4.31;97.58;98283.03;1766762;78;21560;-61
2022/01/04 19:44:04;;;;;;;15.48;7.85;;;;;;;4.28;97.13;98279.27;1764453;78;21418;-60
2022/01/04 19:46:31;;;;;;;8.48;6.55;;;;;;;4.25;97.32;98279.37;1765846;78;21816;-62
2022/01/04 19:48:57;;;;;;;7.78;5.87;;;;;;;4.24;97.27;98279.83;1766009;78;20989;-60
2022/01/04 19:51:25;;;;;;;11.97;6.83;;;;;;;4.36;97.57;98268.55;1764953;78;21517;-60
2022/01/04 19:53:52;;;;;;;9.05;6.33;;;;;;;4.40;97.08;98268.81;1760347;78;21064;-59
2022/01/04 19:56:18;;;;;;;8.40;5.80;;;;;;;4.36;96.67;98271.99;1762120;78;21465;-59
2022/01/04 19:58:48;;;;;;;12.20;6.78;;;;;;;4.31;95.52;98266.11;1769684;78;21789;-62
2022/01/04 20:01:16;;;;;;;11.57;6.47;;;;;;;4.28;95.78;98259.28;1754948;78;20992;-61
2022/01/04 20:03:43;;;;;;;8.28;5.90;;;;;;;4.39;96.43;98250.19;1776029;78;21411;-62
2022/01/04 20:06:10;;;;;;;9.05;5.78;;;;;;;4.46;96.13;98252.95;1759422;78;21474;-62
2022/01/04 20:08:36;;;;;;;10.68;6.83;;;;;;;4.42;94.95;98251.38;1772400;78;21563;-62
2022/01/04 20:11:03;;;;;;;8.78;6.05;;;;;;;4.41;95.62;98257.05;1757687;78;21462;-59
2022/01/04 20:13:29;;;;;;;8.78;5.40;;;;;;;4.38;94.83;98244.15;1759402;78;21544;-60
2022/01/04 20:15:56;;;;;;;7.08;5.10;;;;;;;4.44;94.54;98237.39;1768572;78;21497;-60
2022/01/04 20:18:23;;;;;;;10.15;6.12;;;;;;;4.49;93.85;98241.96;1765529;78;21524;-59
2022/01/04 20:20:50;;;;;;;8.70;6.13;;;;;;;4.47;93.91;98225.56;1771367;78;21596;-60
2022/01/04 20:23:17;;;;;;;12.03;6.50;;;;;;;4.46;94.43;98221.72;1768537;78;21853;-60
2022/01/04 20:25:44;;;;;;;10.43;5.60;;;;;;;4.44;93.11;98226.14;1765912;78;21439;-59
2022/01/04 20:28:11;;;;;;;10.20;6.05;;;;;;;4.50;93.42;98219.38;1765353;78;21593;-60
2022/01/04 20:30:38;;;;;;;10.88;6.87;;;;;;;4.55;93.22;98219.20;1762549;78;21513;-61
2022/01/04 20:33:05;;;;;;;10.43;6.60;;;;;;;4.50;93.19;98211.56;1762632;78;21406;-59
2022/01/04 20:35:32;;;;;;;9.28;5.80;;;;;;;4.47;93.32;98207.81;1757088;78;21791;-58
2022/01/04 20:37:59;;;;;;;9.40;5.17;;;;;;;4.45;93.35;98197.45;1769422;78;23057;-60
2022/01/04 20:40:26;;;;;;;10.10;6.50;;;;;;;4.50;92.99;98192.05;1763608;78;21513;-58
2022/01/04 20:42:54;;;;;;;9.33;6.37;;;;;;;4.57;93.38;98188.75;1763003;78;21873;-59
2022/01/04 20:45:21;;;;;;;8.20;5.70;;;;;;;4.59;93.37;98182.55;1762216;78;21477;-61
2022/01/04 20:47:48;;;;;;;;;;;;;;;4.56;92.49;98177.50;1770480;78;21877;-59
2022/01/04 20:50:16;;;;;;;8.05;5.47;;;;;;;4.53;92.76;98168.97;1760346;79;20140;-60
2022/01/04 20:52:46;;;;;;;10.75;6.20;;;;;;;4.51;93.69;98179.44;1768878;78;21486;-61
2022/01/04 20:55:16;;;;;;;8.13;5.60;;;;;;;4.62;93.70;98169.88;1768074;78;21493;-60
2022/01/04 20:57:43;;;;;;;7.97;5.12;;;;;;;4.67;93.33;98173.12;1769551;78;20907;-59
2022/01/04 21:00:13;;;;;;;9.93;5.53;;;;;;;4.63;92.00;98159.84;1772363;78;21556;-60
2022/01/04 21:02:41;;;;;;;7.15;4.65;;;;;;;4.56;92.38;98158.41;1772714;78;21579;-59
2022/01/04 21:05:08;;;;;;;9.23;5.40;;;;;;;4.52;92.91;98153.81;1762610;78;21596;-59
2022/01/04 21:07:35;;;;;;;14.87;5.72;;;;;;;4.57;92.92;98150.53;1770447;78;21481;-59
2022/01/04 21:10:05;;;;;;;10.53;6.12;;;;;;;4.60;91.83;98150.42;1773890;78;21379;-59
2022/01/04 21:12:34;;;;;;;10.70;6.72;;;;;;;4.56;91.04;98146.69;1784744;78;20946;-58
2022/01/04 21:15:01;;;;;;;;;;;;;;;4.48;92.10;98140.51;1784535;78;21572;-56
2022/01/04 21:17:30;;;;;;;8.10;5.00;;;;;;;4.45;92.57;98133.69;1792309;78;20422;-56
2022/01/04 21:19:57;;;;;;;7.87;5.40;;;;;;;4.52;92.95;98129.08;1789890;77;21484;-55
2022/01/04 21:22:23;;;;;;;9.48;5.90;;;;;;;4.55;92.89;98123.73;1791088;78;21013;-56
2022/01/04 21:24:50;;;;;;;8.35;5.72;;;;;;;4.52;93.44;98122.58;1792620;78;21683;-56
2022/01/04 21:27:16;;;;;;;8.58;5.35;;;;;;;4.47;93.68;98114.95;1785984;78;21462;-55
